createdAt,value
2023-10-04T00:01:03.291Z,13.71
2023-10-04T00:06:06.040Z,13.61
2023-10-04T00:11:15.644Z,13.63
2023-10-04T00:16:19.526Z,13.58
2023-10-04T00:21:23.203Z,13.46
2023-10-04T00:26:26.290Z,13.31
2023-10-04T00:31:30.056Z,13.26
2023-10-04T00:36:33.199Z,13.31
2023-10-04T00:41:36.728Z,13.25
2023-10-04T00:46:43.485Z,13.25
2023-10-04T00:51:47.714Z,13.04
2023-10-04T00:56:53.088Z,13.00
2023-10-04T01:01:56.029Z,12.66
2023-10-04T01:23:06.082Z,12.62
2023-10-04T01:28:14.107Z,12.62
2023-10-04T01:33:17.534Z,12.54
2023-10-04T01:38:33.704Z,12.48
2023-10-04T01:43:36.736Z,12.48
2023-10-04T01:48:41.482Z,12.31
2023-10-04T01:53:44.261Z,12.38
2023-10-04T01:58:50.132Z,12.28
2023-10-04T02:03:55.211Z,12.25
2023-10-04T02:08:58.577Z,12.04
2023-10-04T02:14:01.544Z,12.17
2023-10-04T02:19:05.021Z,12.19
2023-10-04T02:24:11.250Z,12.03
2023-10-04T02:29:14.425Z,12.01
2023-10-04T02:34:20.661Z,11.94
2023-10-04T02:39:25.700Z,11.99
2023-10-04T02:44:28.800Z,11.96
2023-10-04T02:49:31.670Z,11.64
2023-10-04T02:54:35.102Z,11.41
2023-10-04T02:59:37.916Z,11.59
2023-10-04T03:04:42.677Z,11.54
2023-10-04T03:09:45.458Z,11.61
2023-10-04T03:14:48.309Z,11.66
2023-10-04T03:19:53.117Z,11.72
2023-10-04T03:24:56.016Z,11.71
2023-10-04T03:30:00.129Z,11.93
2023-10-04T03:35:09.030Z,12.07
2023-10-04T03:40:16.386Z,12.09
2023-10-04T03:45:21.995Z,12.13
2023-10-04T03:50:25.804Z,12.37
2023-10-04T03:55:28.619Z,12.63
2023-10-04T04:00:33.807Z,13.02
2023-10-04T04:05:43.116Z,13.10
2023-10-04T04:10:47.672Z,13.67
2023-10-04T04:15:50.543Z,14.48
2023-10-04T04:20:55.646Z,15.17
2023-10-04T04:26:08.104Z,15.98
2023-10-04T04:31:22.120Z,16.52
2023-10-04T04:36:29.315Z,17.99
2023-10-04T04:41:39.895Z,19.18
2023-10-04T04:46:44.713Z,20.06
2023-10-04T04:51:48.738Z,20.30
2023-10-04T04:56:51.629Z,21.33
2023-10-04T05:01:57.280Z,22.44
2023-10-04T05:07:00.437Z,22.99
2023-10-04T05:12:03.182Z,23.40
2023-10-04T05:17:05.928Z,23.68
2023-10-04T05:22:08.840Z,24.47
2023-10-04T05:27:11.727Z,24.20
2023-10-04T05:32:14.626Z,24.55
2023-10-04T05:37:17.425Z,25.34
2023-10-04T05:42:20.122Z,24.95
2023-10-04T05:47:22.788Z,25.59
2023-10-04T05:52:25.616Z,26.47
2023-10-04T05:57:30.014Z,25.85
2023-10-04T06:02:33.631Z,26.68
2023-10-04T06:07:36.774Z,26.75
2023-10-04T06:12:41.210Z,27.38
2023-10-04T06:17:47.472Z,27.32
2023-10-04T06:22:51.147Z,26.78
2023-10-04T06:27:55.649Z,26.42
2023-10-04T06:33:01.240Z,26.97
2023-10-04T06:38:08.013Z,26.38
2023-10-04T06:43:11.513Z,26.64
2023-10-04T06:48:15.702Z,26.65
2023-10-04T06:53:18.784Z,26.03
2023-10-04T06:58:22.785Z,24.90
2023-10-04T07:03:28.012Z,24.31
2023-10-04T07:08:36.946Z,23.82
2023-10-04T07:13:40.827Z,23.02
2023-10-04T07:18:43.948Z,22.50
2023-10-04T07:23:47.652Z,21.49
2023-10-04T07:28:50.742Z,20.50
2023-10-04T07:33:53.645Z,20.56
2023-10-04T07:38:56.666Z,20.60
2023-10-04T07:43:59.496Z,20.50
2023-10-04T07:49:03.203Z,20.46
2023-10-04T07:54:08.889Z,20.22
2023-10-04T07:59:11.865Z,20.11
2023-10-04T08:04:14.818Z,20.11
2023-10-04T08:09:17.881Z,20.07
2023-10-04T08:14:22.640Z,20.04
2023-10-04T08:19:25.474Z,20.12
2023-10-04T08:24:28.513Z,20.04
2023-10-04T08:29:35.572Z,20.03
2023-10-04T08:34:38.767Z,19.94
2023-10-04T08:39:42.036Z,19.76
2023-10-04T08:44:45.049Z,19.85
2023-10-04T08:49:56.861Z,20.21
2023-10-04T08:55:09.433Z,20.09
2023-10-04T09:00:28.972Z,20.14
2023-10-04T09:05:34.878Z,20.06
2023-10-04T09:10:40.654Z,20.20
2023-10-04T09:15:43.553Z,20.31
2023-10-04T09:20:46.977Z,20.20
2023-10-04T09:25:54.555Z,20.22
2023-10-04T09:31:10.261Z,20.33
2023-10-04T09:36:36.383Z,20.21
2023-10-04T09:41:49.399Z,20.36
2023-10-04T09:46:58.583Z,20.53
2023-10-04T09:52:02.722Z,20.33
2023-10-04T09:57:11.438Z,20.49
2023-10-04T10:02:17.067Z,20.52
2023-10-04T10:07:26.925Z,20.56
2023-10-04T10:12:33.543Z,20.53
2023-10-04T10:17:37.184Z,20.68
2023-10-04T10:23:01.835Z,20.81
2023-10-04T10:28:06.173Z,20.78
2023-10-04T10:33:08.885Z,20.69
2023-10-04T10:38:30.691Z,20.91
2023-10-04T10:43:36.896Z,20.85
2023-10-04T10:48:39.950Z,20.76
2023-10-04T10:53:42.795Z,20.83
2023-10-04T10:58:50.173Z,20.85
2023-10-04T11:03:52.879Z,20.89
2023-10-04T11:08:57.208Z,20.78
2023-10-04T11:14:00.837Z,20.79
2023-10-04T11:19:05.111Z,20.58
2023-10-04T11:24:11.164Z,20.81
2023-10-04T11:29:14.611Z,21.02
2023-10-04T11:34:18.626Z,21.09
2023-10-04T11:39:24.214Z,20.98
2023-10-04T11:44:27.177Z,21.19
2023-10-04T11:49:33.852Z,21.18
2023-10-04T11:54:45.806Z,21.19
2023-10-04T11:59:48.511Z,21.12
2023-10-04T12:04:51.525Z,21.16
2023-10-04T12:09:54.333Z,21.14
2023-10-04T12:14:57.176Z,21.17
2023-10-04T12:20:00.185Z,21.25
2023-10-04T12:25:03.109Z,21.19
2023-10-04T12:30:07.161Z,21.19
2023-10-04T12:35:12.312Z,21.08
2023-10-04T12:40:25.292Z,21.04
2023-10-04T12:45:33.318Z,21.01
2023-10-04T12:50:36.767Z,20.89
2023-10-04T12:55:39.625Z,20.80
2023-10-04T13:00:45.656Z,20.68
2023-10-04T13:05:48.704Z,20.53
2023-10-04T13:10:51.451Z,20.57
2023-10-04T13:15:54.740Z,20.36
2023-10-04T13:20:57.597Z,20.38
2023-10-04T13:26:00.389Z,20.22
2023-10-04T13:31:04.466Z,20.13
2023-10-04T13:36:07.331Z,20.03
2023-10-04T13:41:16.520Z,19.79
2023-10-04T13:46:19.694Z,19.58
2023-10-04T13:51:25.936Z,19.58
2023-10-04T13:56:28.939Z,19.43
2023-10-04T14:01:31.945Z,19.29
2023-10-04T14:06:34.910Z,19.16
2023-10-04T14:11:37.667Z,18.96
2023-10-04T14:16:43.621Z,18.75
2023-10-04T14:21:46.545Z,18.59
2023-10-04T14:26:53.582Z,18.51
2023-10-04T14:31:56.488Z,18.20
2023-10-04T14:36:59.397Z,18.09
2023-10-04T14:42:06.395Z,17.85
2023-10-04T14:47:09.629Z,17.67
2023-10-04T14:52:13.614Z,17.51
2023-10-04T14:57:16.485Z,17.30
2023-10-04T15:02:20.028Z,17.23
2023-10-04T15:07:23.087Z,17.02
2023-10-04T15:12:25.898Z,16.93
2023-10-04T15:17:28.725Z,16.90
2023-10-04T15:22:37.497Z,16.75
2023-10-04T15:28:07.460Z,16.59
2023-10-04T15:33:10.505Z,16.51
2023-10-04T15:38:13.499Z,16.29
2023-10-04T15:43:18.775Z,16.07
2023-10-04T15:48:21.696Z,16.13
2023-10-04T15:53:25.930Z,16.14
2023-10-04T15:58:28.976Z,16.00
2023-10-04T16:03:32.694Z,15.93
2023-10-04T16:08:36.521Z,15.83
2023-10-04T16:13:39.329Z,15.66
2023-10-04T16:18:42.507Z,15.68
2023-10-04T16:23:45.508Z,15.39
2023-10-04T16:28:48.667Z,15.28
2023-10-04T16:33:51.749Z,15.32
2023-10-04T16:38:54.649Z,15.29
2023-10-04T16:43:57.342Z,15.10
2023-10-04T16:49:00.301Z,15.15
2023-10-04T16:54:04.437Z,14.93
2023-10-04T16:59:07.810Z,14.94
2023-10-04T17:04:11.313Z,14.79
2023-10-04T17:09:14.251Z,14.77
2023-10-04T17:14:17.129Z,14.66
2023-10-04T17:19:20.611Z,14.63
2023-10-04T17:24:23.529Z,14.55
2023-10-04T17:29:26.540Z,14.46
2023-10-04T17:34:29.441Z,14.34
2023-10-04T17:39:32.724Z,14.41
2023-10-04T17:44:35.604Z,14.34
2023-10-04T17:49:38.610Z,14.22
2023-10-04T17:54:41.672Z,14.16
2023-10-04T17:59:44.682Z,14.10
2023-10-04T18:04:47.754Z,13.93
2023-10-04T18:09:50.606Z,13.96
2023-10-04T18:14:53.659Z,13.98
2023-10-04T18:19:57.109Z,14.00
2023-10-04T18:24:59.964Z,13.98
2023-10-04T18:30:02.912Z,13.93
2023-10-04T18:35:06.830Z,13.79
2023-10-04T18:40:11.211Z,13.73
2023-10-04T18:45:14.381Z,13.62
2023-10-04T18:50:18.910Z,13.38
2023-10-04T18:55:21.897Z,13.52
2023-10-04T19:00:26.567Z,13.46
2023-10-04T19:05:30.035Z,13.21
2023-10-04T19:10:32.698Z,13.34
2023-10-04T19:15:35.742Z,13.28
2023-10-04T19:20:38.898Z,13.18
2023-10-04T19:25:41.710Z,13.26
2023-10-04T19:30:44.988Z,13.24
2023-10-04T19:35:47.873Z,13.22
2023-10-04T19:40:52.336Z,13.21
2023-10-04T19:45:55.817Z,13.14
2023-10-04T19:50:58.767Z,13.05
2023-10-04T19:56:01.631Z,12.99
2023-10-04T20:01:04.748Z,12.98
2023-10-04T20:06:11.079Z,13.02
2023-10-04T20:11:14.020Z,12.90
2023-10-04T20:16:18.106Z,12.88
2023-10-04T20:21:20.964Z,12.90
2023-10-04T20:26:24.030Z,12.86
2023-10-04T20:31:26.950Z,12.80
2023-10-04T20:36:29.888Z,12.79
2023-10-04T20:41:33.441Z,12.76
2023-10-04T20:46:36.546Z,12.74
2023-10-04T20:51:39.895Z,12.74
2023-10-04T20:56:43.029Z,12.69
2023-10-04T21:01:45.858Z,12.60
2023-10-04T21:06:48.742Z,12.59
2023-10-04T21:11:51.969Z,12.66
2023-10-04T21:16:55.032Z,12.68
2023-10-04T21:21:58.192Z,12.67
2023-10-04T21:27:02.853Z,12.59
2023-10-04T21:32:06.036Z,12.57
2023-10-04T21:37:11.683Z,12.47
2023-10-04T21:42:16.942Z,12.52
2023-10-04T21:47:28.448Z,12.32
2023-10-04T21:52:33.074Z,12.33
2023-10-04T21:57:35.812Z,12.37
2023-10-04T22:02:38.636Z,12.32
2023-10-04T22:07:43.862Z,12.18
2023-10-04T22:12:47.270Z,11.97
2023-10-04T22:17:51.198Z,12.10
2023-10-04T22:22:54.234Z,11.99
2023-10-04T22:27:56.898Z,12.02
2023-10-04T22:32:59.741Z,11.95
2023-10-04T22:38:03.047Z,11.91
2023-10-04T22:43:09.184Z,11.72
2023-10-04T22:48:11.995Z,11.81
2023-10-04T22:53:15.678Z,11.80
2023-10-04T22:58:18.511Z,11.82
2023-10-04T23:03:34.127Z,11.93
2023-10-04T23:08:46.701Z,11.77
2023-10-04T23:13:52.476Z,11.80
2023-10-04T23:18:55.357Z,11.81
2023-10-04T23:24:10.390Z,11.81
2023-10-04T23:29:14.844Z,11.87
2023-10-04T23:34:19.065Z,11.66
2023-10-04T23:39:30.858Z,11.71
2023-10-04T23:44:33.885Z,11.65
2023-10-04T23:49:40.157Z,11.48
2023-10-04T23:54:46.569Z,11.58
2023-10-04T23:59:52.448Z,11.56
